createdAt,value
2023-01-03T00:02:47.069Z,80.59
2023-01-03T00:05:13.702Z,80.72
2023-01-03T00:07:40.250Z,80.40
2023-01-03T00:12:42.923Z,80.01
2023-01-03T00:15:10.444Z,80.19
2023-01-03T00:20:12.191Z,80.36
2023-01-03T00:22:39.324Z,80.09
2023-01-03T00:25:06.088Z,80.74
2023-01-03T00:27:32.635Z,80.59
2023-01-03T00:32:35.328Z,79.77
2023-01-03T00:35:05.302Z,80.08
2023-01-03T00:37:32.260Z,79.63
2023-01-03T00:39:58.845Z,79.92
2023-01-03T00:42:25.405Z,79.43
2023-01-03T00:44:51.963Z,79.21
2023-01-03T00:47:18.512Z,79.60
2023-01-03T00:49:45.148Z,79.22
2023-01-03T00:52:11.677Z,78.70
2023-01-03T00:54:38.274Z,79.53
2023-01-03T00:57:04.876Z,78.51
2023-01-03T00:59:31.423Z,79.50
2023-01-03T01:01:58.848Z,79.03
2023-01-03T01:04:30.967Z,78.47
2023-01-03T01:07:00.809Z,78.99
2023-01-03T01:09:33.520Z,78.90
2023-01-03T01:12:00.781Z,78.92
2023-01-03T01:14:29.615Z,79.59
2023-01-03T01:17:01.880Z,79.14
2023-01-03T01:19:35.093Z,78.65
2023-01-03T01:22:02.263Z,78.79
2023-01-03T01:24:28.979Z,79.01
2023-01-03T01:26:55.657Z,79.21
2023-01-03T01:29:22.363Z,79.41
2023-01-03T01:31:49.174Z,78.64
2023-01-03T01:34:16.639Z,78.71
2023-01-03T01:36:44.365Z,78.23
2023-01-03T01:39:17.894Z,78.48
2023-01-03T01:42:05.223Z,78.38
2023-01-03T01:44:58.668Z,78.79
2023-01-03T01:50:25.705Z,78.66
2023-01-03T01:53:01.105Z,78.74
2023-01-03T01:55:49.543Z,78.90
2023-01-03T01:58:16.758Z,79.14
2023-01-03T02:00:44.647Z,79.08
2023-01-03T02:03:12.685Z,78.84
2023-01-03T02:05:44.888Z,78.61
2023-01-03T02:08:11.542Z,79.31
2023-01-03T02:10:51.680Z,79.57
2023-01-03T02:13:30.291Z,78.57
2023-01-03T02:16:08.241Z,78.84
2023-01-03T02:18:37.611Z,78.13
2023-01-03T02:34:43.513Z,79.16
2023-01-03T02:37:17.600Z,79.45
2023-01-03T02:40:01.837Z,79.42
2023-01-03T02:43:05.950Z,79.75
2023-01-03T02:46:00.242Z,79.47
2023-01-03T02:48:51.928Z,79.93
2023-01-03T02:54:07.231Z,80.24
2023-01-03T02:56:55.711Z,80.51
2023-01-03T02:59:30.758Z,81.68
2023-01-03T03:01:58.895Z,81.63
2023-01-03T03:07:14.740Z,80.65
2023-01-03T03:10:00.033Z,80.31
2023-01-03T03:12:49.115Z,80.80
2023-01-03T03:15:23.015Z,80.83
2023-01-03T03:17:54.169Z,81.19
2023-01-03T03:20:39.565Z,81.67
2023-01-03T03:23:30.977Z,81.98
2023-01-03T03:26:03.231Z,82.22
2023-01-03T03:28:35.249Z,82.42
2023-01-03T03:31:20.571Z,83.83
2023-01-03T03:33:54.074Z,84.45
2023-01-03T03:36:33.070Z,83.56
2023-01-03T03:39:00.458Z,84.42
2023-01-03T03:41:59.968Z,82.59
2023-01-03T03:45:02.345Z,83.55
2023-01-03T03:47:53.522Z,82.97
2023-01-03T03:50:23.810Z,82.42
2023-01-03T03:52:54.866Z,81.95
2023-01-03T03:55:43.288Z,82.43
2023-01-03T03:58:15.242Z,83.45
2023-01-03T04:00:44.100Z,83.54
2023-01-03T04:03:12.718Z,84.24
2023-01-03T04:05:48.965Z,85.58
2023-01-03T04:08:15.611Z,85.02
2023-01-03T04:10:42.896Z,84.14
2023-01-03T04:13:09.700Z,83.52
2023-01-03T04:15:36.300Z,83.50
2023-01-03T04:18:03.015Z,83.28
2023-01-03T04:20:29.872Z,83.79
2023-01-03T04:22:56.827Z,84.29
2023-01-03T04:25:23.398Z,85.11
2023-01-03T04:27:50.007Z,86.63
2023-01-03T04:30:16.871Z,88.16
2023-01-03T04:32:43.716Z,87.33
2023-01-03T04:35:10.277Z,86.68
2023-01-03T04:37:36.881Z,87.91
2023-01-03T04:40:03.639Z,87.76
2023-01-03T04:42:48.822Z,87.94
2023-01-03T04:45:15.554Z,85.85
2023-01-03T04:47:42.076Z,85.41
2023-01-03T04:50:09.844Z,86.54
2023-01-03T04:52:36.384Z,85.67
2023-01-03T04:57:34.296Z,86.24
2023-01-03T05:00:00.871Z,85.54
2023-01-03T05:02:27.484Z,85.02
2023-01-03T05:04:54.097Z,85.86
2023-01-03T05:07:20.701Z,86.45
2023-01-03T05:09:47.262Z,86.76
2023-01-03T05:12:13.875Z,85.92
2023-01-03T05:14:43.142Z,85.71
2023-01-03T05:17:09.875Z,85.96
2023-01-03T05:19:56.471Z,86.98
2023-01-03T05:22:42.187Z,88.00
2023-01-03T05:25:29.445Z,85.70
2023-01-03T05:27:57.538Z,86.53
2023-01-03T05:30:24.685Z,85.32
2023-01-03T05:32:51.229Z,86.04
2023-01-03T05:35:17.845Z,84.96
2023-01-03T05:37:44.461Z,84.83
2023-01-03T05:40:11.207Z,85.21
2023-01-03T05:42:37.760Z,83.73
2023-01-03T05:45:04.859Z,84.38
2023-01-03T05:47:31.483Z,84.15
2023-01-03T05:49:58.029Z,83.53
2023-01-03T05:52:24.563Z,84.23
2023-01-03T05:54:51.097Z,84.68
2023-01-03T05:57:17.648Z,86.36
2023-01-03T05:59:44.248Z,87.71
2023-01-03T06:02:10.923Z,88.30
2023-01-03T06:04:37.606Z,90.16
2023-01-03T06:07:04.276Z,89.33
2023-01-03T06:09:32.024Z,87.29
2023-01-03T06:11:58.660Z,87.33
2023-01-03T06:14:25.255Z,87.50
2023-01-03T06:17:10.715Z,86.32
2023-01-03T06:19:37.304Z,87.25
2023-01-03T06:22:10.231Z,87.16
2023-01-03T06:24:37.515Z,87.81
2023-01-03T06:27:04.078Z,87.01
2023-01-03T06:29:30.597Z,85.80
2023-01-03T06:31:57.574Z,86.48
2023-01-03T06:34:24.146Z,86.44
2023-01-03T06:36:50.694Z,85.79
2023-01-03T06:39:17.261Z,86.24
2023-01-03T06:44:15.050Z,85.74
2023-01-03T06:46:59.959Z,84.75
2023-01-03T06:49:45.194Z,84.95
2023-01-03T06:52:34.527Z,85.08
2023-01-03T06:55:01.746Z,85.51
2023-01-03T06:57:28.508Z,85.92
2023-01-03T06:59:55.737Z,87.08
2023-01-03T07:02:22.531Z,88.08
2023-01-03T07:04:49.291Z,87.62
2023-01-03T07:07:15.931Z,87.38
2023-01-03T07:09:42.471Z,87.17
2023-01-03T07:12:27.874Z,88.76
2023-01-03T07:14:54.528Z,88.21
2023-01-03T07:17:21.564Z,89.12
2023-01-03T07:19:48.123Z,88.71
2023-01-03T07:22:14.724Z,86.16
2023-01-03T07:24:41.308Z,87.55
2023-01-03T07:27:08.025Z,88.32
2023-01-03T07:29:34.582Z,90.33
2023-01-03T07:34:32.381Z,94.54
2023-01-03T07:36:58.923Z,89.87
2023-01-03T07:39:25.544Z,89.89
2023-01-03T07:42:10.985Z,89.45
2023-01-03T07:44:37.547Z,89.02
2023-01-03T07:47:04.061Z,88.49
2023-01-03T07:49:30.788Z,86.11
2023-01-03T07:51:57.317Z,87.85
2023-01-03T07:54:23.898Z,87.22
2023-01-03T07:56:50.432Z,86.85
2023-01-03T07:59:17.319Z,86.54
2023-01-03T08:01:44.023Z,87.49
2023-01-03T08:04:10.799Z,87.58
2023-01-03T08:06:37.425Z,87.80
2023-01-03T08:09:22.413Z,87.13
2023-01-03T08:12:07.536Z,89.33
2023-01-03T08:14:34.122Z,90.57
2023-01-03T08:17:00.737Z,90.99
2023-01-03T08:19:27.307Z,91.88
2023-01-03T08:21:53.933Z,91.24
2023-01-03T08:24:20.651Z,90.60
2023-01-03T08:26:47.226Z,90.65
2023-01-03T08:29:15.316Z,91.04
2023-01-03T08:31:47.247Z,92.60
2023-01-03T08:34:19.737Z,92.38
2023-01-03T08:36:55.599Z,92.77
2023-01-03T08:39:27.085Z,92.36
2023-01-03T08:41:59.536Z,92.30
2023-01-03T08:44:26.814Z,92.53
2023-01-03T08:46:56.988Z,91.65
2023-01-03T08:49:23.893Z,92.43
2023-01-03T08:51:50.444Z,92.60
2023-01-03T08:54:17.073Z,91.85
2023-01-03T08:56:43.628Z,91.30
2023-01-03T08:59:10.213Z,91.84
2023-01-03T09:04:08.323Z,91.76
2023-01-03T09:06:35.044Z,92.20
2023-01-03T09:09:08.883Z,91.92
2023-01-03T09:11:35.470Z,91.00
2023-01-03T09:14:02.033Z,88.72
2023-01-03T09:16:28.727Z,89.74
2023-01-03T09:18:55.376Z,90.94
2023-01-03T09:21:22.016Z,91.11
2023-01-03T09:23:48.583Z,90.65
2023-01-03T09:26:15.173Z,89.97
2023-01-03T09:28:41.722Z,91.03
2023-01-03T09:31:08.303Z,91.13
2023-01-03T09:33:34.989Z,90.37
2023-01-03T09:36:01.653Z,90.03
2023-01-03T09:38:28.215Z,90.89
2023-01-03T09:41:06.169Z,89.91
2023-01-03T09:43:41.316Z,89.78
2023-01-03T09:46:17.305Z,89.19
2023-01-03T09:48:44.646Z,88.11
2023-01-03T09:51:45.933Z,88.93
2023-01-03T09:54:35.826Z,88.24
2023-01-03T09:57:28.325Z,87.35
2023-01-03T10:00:14.044Z,87.34
2023-01-03T10:03:31.882Z,86.33
2023-01-03T10:06:11.205Z,87.96
2023-01-03T10:08:49.010Z,86.78
2023-01-03T10:11:28.122Z,85.65
2023-01-03T10:14:28.331Z,86.19
2023-01-03T10:17:26.925Z,85.43
2023-01-03T10:20:30.881Z,85.19
2023-01-03T10:22:59.908Z,85.74
2023-01-03T10:25:29.402Z,85.27
2023-01-03T10:28:11.724Z,85.00
2023-01-03T10:31:07.714Z,86.27
2023-01-03T10:33:42.223Z,86.40
2023-01-03T10:36:09.441Z,86.33
2023-01-03T10:38:44.913Z,85.25
2023-01-03T10:41:29.266Z,85.59
2023-01-03T10:44:03.765Z,86.12
2023-01-03T10:46:31.338Z,85.41
2023-01-03T10:49:31.034Z,85.29
2023-01-03T10:52:15.871Z,85.95
2023-01-03T10:54:42.361Z,87.00
2023-01-03T10:57:39.699Z,85.96
2023-01-03T11:00:23.283Z,85.56
2023-01-03T11:02:51.273Z,84.67
2023-01-03T11:05:21.035Z,85.10
2023-01-03T11:08:00.399Z,84.68
2023-01-03T11:10:39.924Z,84.04
2023-01-03T11:13:21.811Z,84.70
2023-01-03T11:15:54.223Z,84.71
2023-01-03T11:18:21.437Z,83.92
2023-01-03T11:20:55.656Z,84.40
2023-01-03T11:23:45.476Z,83.34
2023-01-03T11:26:27.988Z,83.76
2023-01-03T11:29:02.791Z,83.21
2023-01-03T11:31:48.184Z,83.94
2023-01-03T11:34:55.095Z,82.50
2023-01-03T11:37:43.518Z,82.87
2023-01-03T11:40:34.027Z,84.11
2023-01-03T11:43:24.570Z,82.31
2023-01-03T11:46:12.861Z,81.64
2023-01-03T11:49:04.330Z,83.24
2023-01-03T11:51:30.859Z,80.20
2023-01-03T11:54:12.294Z,81.60
2023-01-03T11:56:43.583Z,81.94
2023-01-03T11:59:48.029Z,82.11
2023-01-03T12:02:39.146Z,79.71
2023-01-03T12:05:44.523Z,79.17
2023-01-03T12:08:38.988Z,78.18
2023-01-03T12:14:46.313Z,78.60
2023-01-03T12:17:23.290Z,77.36
2023-01-03T12:19:57.257Z,78.42
2023-01-03T12:22:32.935Z,77.19
2023-01-03T12:25:20.863Z,78.19
2023-01-03T12:27:55.636Z,79.54
2023-01-03T12:30:31.555Z,78.40
2023-01-03T12:33:17.382Z,77.60
2023-01-03T12:35:52.026Z,78.82
2023-01-03T12:38:23.307Z,78.37
2023-01-03T12:40:58.088Z,78.18
2023-01-03T12:43:32.476Z,77.36
2023-01-03T12:46:12.043Z,76.96
2023-01-03T12:49:16.384Z,78.32
2023-01-03T12:51:42.914Z,76.78
2023-01-03T12:54:22.200Z,77.01
2023-01-03T12:57:18.790Z,78.46
2023-01-03T13:00:02.040Z,76.12
2023-01-03T13:02:38.090Z,75.83
2023-01-03T13:05:29.398Z,73.77
2023-01-03T13:08:29.636Z,72.45
2023-01-03T13:11:00.989Z,74.67
2023-01-03T13:13:27.734Z,70.62
2023-01-03T13:15:54.707Z,72.30
2023-01-03T13:18:21.265Z,74.54
2023-01-03T13:20:50.416Z,72.46
2023-01-03T13:23:56.211Z,71.92
2023-01-03T13:26:25.483Z,71.00
2023-01-03T13:28:53.518Z,69.64
2023-01-03T13:31:21.124Z,70.12
2023-01-03T13:33:55.849Z,69.96
2023-01-03T13:36:24.626Z,70.21
2023-01-03T13:38:51.937Z,71.14
2023-01-03T13:41:33.441Z,69.68
2023-01-03T13:44:18.752Z,70.68
2023-01-03T13:46:46.588Z,70.24
2023-01-03T13:49:25.527Z,69.66
2023-01-03T13:51:57.408Z,69.29
2023-01-03T13:57:38.678Z,71.42
2023-01-03T14:00:17.898Z,71.02
2023-01-03T14:03:23.024Z,71.04
2023-01-03T14:06:19.391Z,70.72
2023-01-03T14:09:22.450Z,73.62
2023-01-03T14:14:55.721Z,76.19
2023-01-03T14:17:32.342Z,76.83
2023-01-03T14:20:07.886Z,77.58
2023-01-03T14:22:40.918Z,78.71
2023-01-03T14:25:09.029Z,79.50
2023-01-03T14:27:39.580Z,79.61
2023-01-03T14:30:26.604Z,79.62
2023-01-03T14:35:37.310Z,79.63
2023-01-03T14:38:07.140Z,80.02
2023-01-03T14:43:16.143Z,79.91
2023-01-03T14:45:56.234Z,80.29
2023-01-03T14:48:24.606Z,80.67
2023-01-03T14:50:52.476Z,80.70
2023-01-03T14:53:19.313Z,80.01
2023-01-03T14:55:54.560Z,80.18
2023-01-03T14:58:29.398Z,79.76
2023-01-03T15:00:56.989Z,80.61
2023-01-03T15:03:24.536Z,81.21
2023-01-03T15:05:59.268Z,80.04
2023-01-03T15:08:31.618Z,79.89
2023-01-03T15:11:08.513Z,79.96
2023-01-03T15:16:40.313Z,80.42
2023-01-03T15:19:15.961Z,81.28
2023-01-03T15:21:43.080Z,82.03
2023-01-03T15:24:16.186Z,83.81
2023-01-03T15:26:46.895Z,82.35
2023-01-03T15:29:23.396Z,82.57
2023-01-03T15:31:55.877Z,82.71
2023-01-03T15:34:34.343Z,82.57
2023-01-03T15:37:12.951Z,83.10
2023-01-03T15:39:46.673Z,82.56
2023-01-03T15:42:45.898Z,82.75
2023-01-03T15:45:24.939Z,82.60
2023-01-03T15:47:56.455Z,81.92
2023-01-03T15:50:27.391Z,83.76
2023-01-03T15:52:53.958Z,83.21
2023-01-03T15:55:20.586Z,82.45
2023-01-03T15:57:51.941Z,83.13
2023-01-03T16:00:22.852Z,82.56
2023-01-03T16:02:49.811Z,83.63
2023-01-03T16:05:21.997Z,82.92
2023-01-03T16:07:49.599Z,83.80
2023-01-03T16:10:16.233Z,84.37
2023-01-03T16:12:43.754Z,83.17
2023-01-03T16:15:19.142Z,82.93
2023-01-03T16:17:45.999Z,83.01
2023-01-03T16:23:00.289Z,82.88
2023-01-03T16:25:27.846Z,82.12
2023-01-03T16:27:54.816Z,82.92
2023-01-03T16:30:21.370Z,83.76
2023-01-03T16:32:48.129Z,85.07
2023-01-03T16:35:17.606Z,84.78
2023-01-03T16:37:44.305Z,85.60
2023-01-03T16:40:20.085Z,85.96
2023-01-03T16:42:47.348Z,86.26
2023-01-03T16:45:14.305Z,85.43
2023-01-03T16:47:43.240Z,85.43
2023-01-03T16:52:55.058Z,84.33
2023-01-03T16:55:28.293Z,84.57
2023-01-03T16:57:55.574Z,84.59
2023-01-03T17:00:33.577Z,84.83
2023-01-03T17:05:36.284Z,82.96
2023-01-03T17:08:08.446Z,81.72
2023-01-03T17:10:41.809Z,81.48
2023-01-03T17:13:39.235Z,81.84
2023-01-03T17:16:14.835Z,81.58
2023-01-03T17:18:43.563Z,81.00
2023-01-03T17:24:36.386Z,81.73
2023-01-03T17:27:04.434Z,83.65
2023-01-03T17:29:31.459Z,82.61
2023-01-03T17:31:58.019Z,82.12
2023-01-03T17:34:29.633Z,81.61
2023-01-03T17:36:58.498Z,81.53
2023-01-03T17:39:27.268Z,81.63
2023-01-03T17:45:05.336Z,81.63
2023-01-03T17:47:51.755Z,82.97
2023-01-03T17:52:55.654Z,83.61
2023-01-03T17:55:26.352Z,83.56
2023-01-03T17:57:54.663Z,82.76
2023-01-03T18:00:26.604Z,82.83
2023-01-03T18:02:54.645Z,82.90
2023-01-03T18:05:27.743Z,82.34
2023-01-03T18:10:46.099Z,82.71
2023-01-03T18:13:27.503Z,82.59
2023-01-03T18:15:55.112Z,83.89
2023-01-03T18:18:23.780Z,82.71
2023-01-03T18:20:51.007Z,83.81
2023-01-03T18:23:33.964Z,84.71
2023-01-03T18:26:06.342Z,85.04
2023-01-03T18:28:33.446Z,85.13
2023-01-03T18:31:00.224Z,84.91
2023-01-03T18:33:26.967Z,85.44
2023-01-03T18:35:53.916Z,85.17
2023-01-03T18:38:33.165Z,84.60
2023-01-03T18:41:04.871Z,84.82
2023-01-03T18:43:32.006Z,84.94
2023-01-03T18:45:58.786Z,84.96
2023-01-03T18:48:25.429Z,85.51
2023-01-03T18:50:58.971Z,85.83
2023-01-03T18:53:29.209Z,85.68
2023-01-03T18:55:56.328Z,86.11
2023-01-03T18:58:38.151Z,86.32
2023-01-03T19:01:06.088Z,86.27
2023-01-03T19:06:17.378Z,86.22
2023-01-03T19:08:44.139Z,86.13
2023-01-03T19:11:16.411Z,85.29
2023-01-03T19:13:52.062Z,85.62
2023-01-03T19:16:30.719Z,85.03
2023-01-03T19:21:37.048Z,86.39
2023-01-03T19:24:39.113Z,86.60
2023-01-03T19:27:10.424Z,86.58
2023-01-03T19:29:38.383Z,86.73
2023-01-03T19:32:13.587Z,86.21
2023-01-03T19:34:40.183Z,85.95
2023-01-03T19:37:09.904Z,86.29
2023-01-03T19:39:37.871Z,85.78
2023-01-03T19:42:25.865Z,85.83
2023-01-03T19:44:53.333Z,86.16
2023-01-03T19:47:20.790Z,86.30
2023-01-03T19:49:48.296Z,86.60
2023-01-03T19:52:16.174Z,86.82
2023-01-03T19:54:43.312Z,87.60
2023-01-03T19:57:20.901Z,88.17
2023-01-03T19:59:52.805Z,88.22
2023-01-03T20:02:41.104Z,88.59
2023-01-03T20:05:35.266Z,88.33
2023-01-03T20:08:11.109Z,88.28
2023-01-03T20:10:41.813Z,88.73
2023-01-03T20:13:15.751Z,88.45
2023-01-03T20:15:43.545Z,88.33
2023-01-03T20:18:36.522Z,88.65
2023-01-03T20:21:09.272Z,88.19
2023-01-03T20:23:40.157Z,88.41
2023-01-03T20:26:07.321Z,88.11
2023-01-03T20:28:33.887Z,88.08
2023-01-03T20:31:01.611Z,87.89
2023-01-03T20:33:28.909Z,87.50
2023-01-03T20:36:14.244Z,87.71
2023-01-03T20:38:47.616Z,87.25
2023-01-03T20:41:15.818Z,87.22
2023-01-03T20:43:43.441Z,87.89
2023-01-03T20:46:19.985Z,87.79
2023-01-03T20:48:54.207Z,87.82
2023-01-03T20:51:20.806Z,87.64
2023-01-03T20:53:53.951Z,88.05
2023-01-03T20:56:21.479Z,88.10
2023-01-03T20:58:48.506Z,88.87
2023-01-03T21:01:15.192Z,89.47
2023-01-03T21:03:42.047Z,89.71
2023-01-03T21:06:23.529Z,91.25
2023-01-03T21:08:54.299Z,91.60
2023-01-03T21:11:29.407Z,91.02
2023-01-03T21:16:43.438Z,90.34
2023-01-03T21:19:16.133Z,90.40
2023-01-03T21:21:44.328Z,90.29
2023-01-03T21:24:12.555Z,89.73
2023-01-03T21:26:39.390Z,89.15
2023-01-03T21:29:06.341Z,88.82
2023-01-03T21:31:34.671Z,88.06
2023-01-03T21:34:03.619Z,87.90
2023-01-03T21:36:33.180Z,87.05
2023-01-03T21:39:00.594Z,86.93
2023-01-03T21:41:33.194Z,86.58
2023-01-03T21:44:03.324Z,87.50
2023-01-03T21:46:30.807Z,87.31
2023-01-03T21:48:58.346Z,87.09
2023-01-03T21:51:37.290Z,86.32
2023-01-03T21:54:07.221Z,86.52
2023-01-03T21:56:34.024Z,85.41
2023-01-03T21:59:00.641Z,84.86
2023-01-03T22:01:27.339Z,86.41
2023-01-03T22:04:12.353Z,86.15
2023-01-03T22:09:31.966Z,87.65
2023-01-03T22:11:58.527Z,88.61
2023-01-03T22:14:25.102Z,89.08
2023-01-03T22:16:51.702Z,87.28
2023-01-03T22:19:18.266Z,85.93
2023-01-03T22:21:44.811Z,87.23
2023-01-03T22:24:11.344Z,86.17
2023-01-03T22:26:37.895Z,86.77
2023-01-03T22:29:06.226Z,86.60
2023-01-03T22:31:32.998Z,87.29
2023-01-03T22:33:59.686Z,86.67
2023-01-03T22:36:26.266Z,86.37
2023-01-03T22:38:52.930Z,86.47
2023-01-03T22:41:19.766Z,86.40
2023-01-03T22:43:46.787Z,87.03
2023-01-03T22:46:16.370Z,87.54
2023-01-03T22:48:44.042Z,87.01
2023-01-03T22:51:15.630Z,86.59
2023-01-03T22:53:43.858Z,87.05
2023-01-03T22:58:53.388Z,86.85
2023-01-03T23:01:28.024Z,87.64
2023-01-03T23:06:32.865Z,87.11
2023-01-03T23:09:00.345Z,87.73
2023-01-03T23:11:48.381Z,88.04
2023-01-03T23:14:17.923Z,87.81
2023-01-03T23:16:45.296Z,87.06
2023-01-03T23:19:14.802Z,87.41
2023-01-03T23:21:41.802Z,87.80
2023-01-03T23:24:13.869Z,87.10
2023-01-03T23:26:40.434Z,87.31
2023-01-03T23:29:07.020Z,86.47
2023-01-03T23:31:33.602Z,86.84
2023-01-03T23:34:00.782Z,86.25
2023-01-03T23:36:28.563Z,85.86
2023-01-03T23:38:55.643Z,85.43
2023-01-03T23:43:58.086Z,85.70
2023-01-03T23:46:24.790Z,85.59
2023-01-03T23:48:56.482Z,86.12
2023-01-03T23:51:24.222Z,86.48
2023-01-03T23:53:51.216Z,87.13
2023-01-03T23:56:20.656Z,86.62
2023-01-03T23:58:47.407Z,86.12
